sensor_id;sensor_type;location;lat;lon;timestamp;P1;durP1;ratioP1;P2;durP2;ratioP2
27383;SDS011;14851;51.166;4.760;2022-12-18T00:03:56;84.38;;;31.05;;
27383;SDS011;14851;51.166;4.760;2022-12-18T00:06:23;73.80;;;31.45;;
27383;SDS011;14851;51.166;4.760;2022-12-18T00:08:50;74.10;;;30.48;;
27383;SDS011;14851;51.166;4.760;2022-12-18T00:11:18;64.90;;;30.35;;
27383;SDS011;14851;51.166;4.760;2022-12-18T00:13:46;75.45;;;29.42;;
27383;SDS011;14851;51.166;4.760;2022-12-18T00:16:13;68.90;;;28.90;;
27383;SDS011;14851;51.166;4.760;2022-12-18T00:18:42;63.90;;;28.00;;
27383;SDS011;14851;51.166;4.760;2022-12-18T00:21:09;63.90;;;26.10;;
27383;SDS011;14851;51.166;4.760;2022-12-18T00:23:36;60.15;;;28.13;;
27383;SDS011;14851;51.166;4.760;2022-12-18T00:26:05;69.47;;;28.88;;
27383;SDS011;14851;51.166;4.760;2022-12-18T00:28:33;68.30;;;27.08;;
27383;SDS011;14851;51.166;4.760;2022-12-18T00:31:03;64.93;;;27.70;;
27383;SDS011;14851;51.166;4.760;2022-12-18T00:33:31;64.32;;;28.33;;
27383;SDS011;14851;51.166;4.760;2022-12-18T00:36:04;66.55;;;27.80;;
27383;SDS011;14851;51.166;4.760;2022-12-18T00:38:35;68.68;;;29.13;;
27383;SDS011;14851;51.166;4.760;2022-12-18T00:41:01;63.83;;;27.65;;
27383;SDS011;14851;51.166;4.760;2022-12-18T00:43:27;69.68;;;28.08;;
27383;SDS011;14851;51.166;4.760;2022-12-18T00:45:53;68.13;;;28.05;;
27383;SDS011;14851;51.166;4.760;2022-12-18T00:48:22;63.60;;;28.48;;
27383;SDS011;14851;51.166;4.760;2022-12-18T00:50:49;65.93;;;28.00;;
27383;SDS011;14851;51.166;4.760;2022-12-18T00:53:15;58.08;;;25.13;;
27383;SDS011;14851;51.166;4.760;2022-12-18T00:55:42;61.95;;;26.90;;
27383;SDS011;14851;51.166;4.760;2022-12-18T00:58:08;54.95;;;25.63;;
27383;SDS011;14851;51.166;4.760;2022-12-18T01:00:35;63.38;;;27.42;;
27383;SDS011;14851;51.166;4.760;2022-12-18T01:03:02;67.30;;;26.65;;
27383;SDS011;14851;51.166;4.760;2022-12-18T01:05:33;63.38;;;27.60;;
27383;SDS011;14851;51.166;4.760;2022-12-18T01:07:59;62.85;;;26.27;;
27383;SDS011;14851;51.166;4.760;2022-12-18T01:10:25;56.60;;;25.35;;
27383;SDS011;14851;51.166;4.760;2022-12-18T01:12:51;54.15;;;24.83;;
27383;SDS011;14851;51.166;4.760;2022-12-18T01:15:17;56.70;;;25.27;;
27383;SDS011;14851;51.166;4.760;2022-12-18T01:17:45;55.58;;;23.38;;
27383;SDS011;14851;51.166;4.760;2022-12-18T01:20:11;64.28;;;26.92;;
27383;SDS011;14851;51.166;4.760;2022-12-18T01:22:38;56.13;;;26.27;;
27383;SDS011;14851;51.166;4.760;2022-12-18T01:25:06;56.08;;;24.63;;
27383;SDS011;14851;51.166;4.760;2022-12-18T01:27:33;51.95;;;24.25;;
27383;SDS011;14851;51.166;4.760;2022-12-18T01:29:59;52.63;;;24.70;;
27383;SDS011;14851;51.166;4.760;2022-12-18T01:32:28;54.15;;;25.05;;
27383;SDS011;14851;51.166;4.760;2022-12-18T01:34:58;59.33;;;25.15;;
27383;SDS011;14851;51.166;4.760;2022-12-18T01:37:26;54.90;;;24.58;;
27383;SDS011;14851;51.166;4.760;2022-12-18T01:39:53;52.70;;;24.13;;
27383;SDS011;14851;51.166;4.760;2022-12-18T01:42:20;51.00;;;24.05;;
27383;SDS011;14851;51.166;4.760;2022-12-18T01:44:55;60.60;;;24.70;;
27383;SDS011;14851;51.166;4.760;2022-12-18T01:47:24;54.83;;;23.92;;
27383;SDS011;14851;51.166;4.760;2022-12-18T01:50:16;52.03;;;23.50;;
27383;SDS011;14851;51.166;4.760;2022-12-18T01:52:46;58.30;;;24.42;;
27383;SDS011;14851;51.166;4.760;2022-12-18T01:55:26;51.58;;;22.35;;
27383;SDS011;14851;51.166;4.760;2022-12-18T01:57:55;55.65;;;25.08;;
27383;SDS011;14851;51.166;4.760;2022-12-18T02:00:24;48.45;;;23.08;;
27383;SDS011;14851;51.166;4.760;2022-12-18T02:02:56;42.92;;;22.35;;
27383;SDS011;14851;51.166;4.760;2022-12-18T02:05:44;49.90;;;23.63;;
27383;SDS011;14851;51.166;4.760;2022-12-18T02:08:23;54.45;;;23.55;;
27383;SDS011;14851;51.166;4.760;2022-12-18T02:11:07;50.10;;;22.88;;
27383;SDS011;14851;51.166;4.760;2022-12-18T02:27:49;48.88;;;21.77;;
27383;SDS011;14851;51.166;4.760;2022-12-18T02:30:21;46.30;;;22.25;;
27383;SDS011;14851;51.166;4.760;2022-12-18T02:32:50;52.20;;;24.55;;
27383;SDS011;14851;51.166;4.760;2022-12-18T02:35:24;48.55;;;23.83;;
27383;SDS011;14851;51.166;4.760;2022-12-18T02:38:00;47.38;;;22.38;;
27383;SDS011;14851;51.166;4.760;2022-12-18T02:40:31;47.42;;;21.88;;
27383;SDS011;14851;51.166;4.760;2022-12-18T02:43:03;42.33;;;22.08;;
27383;SDS011;14851;51.166;4.760;2022-12-18T02:45:34;45.72;;;21.63;;
27383;SDS011;14851;51.166;4.760;2022-12-18T02:48:00;47.15;;;20.73;;
27383;SDS011;14851;51.166;4.760;2022-12-18T02:50:29;49.85;;;22.05;;
27383;SDS011;14851;51.166;4.760;2022-12-18T03:04:06;46.00;;;21.83;;
27383;SDS011;14851;51.166;4.760;2022-12-18T03:06:38;47.08;;;21.27;;
27383;SDS011;14851;51.166;4.760;2022-12-18T03:09:14;46.33;;;21.35;;
27383;SDS011;14851;51.166;4.760;2022-12-18T03:11:46;47.30;;;21.58;;
27383;SDS011;14851;51.166;4.760;2022-12-18T03:14:41;45.13;;;21.25;;
27383;SDS011;14851;51.166;4.760;2022-12-18T03:17:10;43.35;;;21.02;;
27383;SDS011;14851;51.166;4.760;2022-12-18T03:19:45;43.40;;;20.10;;
27383;SDS011;14851;51.166;4.760;2022-12-18T03:22:13;54.67;;;23.27;;
27383;SDS011;14851;51.166;4.760;2022-12-18T03:24:49;48.70;;;21.83;;
27383;SDS011;14851;51.166;4.760;2022-12-18T03:27:18;47.63;;;20.67;;
27383;SDS011;14851;51.166;4.760;2022-12-18T03:29:52;38.90;;;19.77;;
27383;SDS011;14851;51.166;4.760;2022-12-18T03:35:31;42.17;;;20.67;;
27383;SDS011;14851;51.166;4.760;2022-12-18T03:38:03;45.70;;;21.42;;
27383;SDS011;14851;51.166;4.760;2022-12-18T03:43:56;45.45;;;20.50;;
27383;SDS011;14851;51.166;4.760;2022-12-18T03:49:42;44.85;;;21.63;;
27383;SDS011;14851;51.166;4.760;2022-12-18T03:52:24;40.35;;;20.10;;
27383;SDS011;14851;51.166;4.760;2022-12-18T03:54:57;39.67;;;19.75;;
27383;SDS011;14851;51.166;4.760;2022-12-18T03:57:30;49.08;;;19.80;;
27383;SDS011;14851;51.166;4.760;2022-12-18T04:00:07;45.40;;;20.83;;
27383;SDS011;14851;51.166;4.760;2022-12-18T04:02:53;43.00;;;20.73;;
27383;SDS011;14851;51.166;4.760;2022-12-18T04:05:28;45.10;;;20.05;;
27383;SDS011;14851;51.166;4.760;2022-12-18T04:07:56;40.15;;;20.17;;
27383;SDS011;14851;51.166;4.760;2022-12-18T04:10:23;39.95;;;18.75;;
27383;SDS011;14851;51.166;4.760;2022-12-18T04:12:55;40.88;;;19.67;;
27383;SDS011;14851;51.166;4.760;2022-12-18T04:15:27;38.75;;;19.58;;
27383;SDS011;14851;51.166;4.760;2022-12-18T04:17:57;40.35;;;18.40;;
27383;SDS011;14851;51.166;4.760;2022-12-18T04:20:30;38.05;;;19.13;;
27383;SDS011;14851;51.166;4.760;2022-12-18T04:22:57;38.67;;;19.15;;
27383;SDS011;14851;51.166;4.760;2022-12-18T04:25:26;47.97;;;19.95;;
27383;SDS011;14851;51.166;4.760;2022-12-18T04:28:03;41.60;;;19.50;;
27383;SDS011;14851;51.166;4.760;2022-12-18T04:30:32;38.25;;;20.35;;
27383;SDS011;14851;51.166;4.760;2022-12-18T04:32:59;43.45;;;19.67;;
27383;SDS011;14851;51.166;4.760;2022-12-18T04:35:25;40.03;;;17.92;;
27383;SDS011;14851;51.166;4.760;2022-12-18T04:37:54;35.28;;;19.23;;
27383;SDS011;14851;51.166;4.760;2022-12-18T04:40:19;41.67;;;19.20;;
27383;SDS011;14851;51.166;4.760;2022-12-18T04:42:47;38.95;;;18.83;;
27383;SDS011;14851;51.166;4.760;2022-12-18T04:45:14;39.60;;;19.42;;
27383;SDS011;14851;51.166;4.760;2022-12-18T04:47:40;42.83;;;19.42;;
27383;SDS011;14851;51.166;4.760;2022-12-18T04:50:06;41.55;;;18.60;;
27383;SDS011;14851;51.166;4.760;2022-12-18T04:52:32;39.45;;;19.95;;
27383;SDS011;14851;51.166;4.760;2022-12-18T04:55:01;32.42;;;16.58;;
27383;SDS011;14851;51.166;4.760;2022-12-18T04:57:27;38.28;;;18.77;;
27383;SDS011;14851;51.166;4.760;2022-12-18T04:59:53;39.30;;;18.40;;
27383;SDS011;14851;51.166;4.760;2022-12-18T05:02:19;38.88;;;18.33;;
27383;SDS011;14851;51.166;4.760;2022-12-18T05:04:45;40.08;;;17.85;;
27383;SDS011;14851;51.166;4.760;2022-12-18T05:07:11;38.78;;;17.73;;
27383;SDS011;14851;51.166;4.760;2022-12-18T05:09:37;40.75;;;18.00;;
27383;SDS011;14851;51.166;4.760;2022-12-18T05:12:03;44.53;;;18.42;;
27383;SDS011;14851;51.166;4.760;2022-12-18T05:14:29;35.08;;;16.35;;
27383;SDS011;14851;51.166;4.760;2022-12-18T05:16:56;37.13;;;17.10;;
27383;SDS011;14851;51.166;4.760;2022-12-18T05:19:22;42.10;;;18.13;;
27383;SDS011;14851;51.166;4.760;2022-12-18T05:21:48;38.13;;;16.88;;
27383;SDS011;14851;51.166;4.760;2022-12-18T05:24:14;35.42;;;16.52;;
27383;SDS011;14851;51.166;4.760;2022-12-18T05:26:40;38.17;;;17.65;;
27383;SDS011;14851;51.166;4.760;2022-12-18T05:29:07;35.65;;;16.25;;
27383;SDS011;14851;51.166;4.760;2022-12-18T05:31:33;32.05;;;16.25;;
27383;SDS011;14851;51.166;4.760;2022-12-18T05:33:59;35.10;;;16.08;;
27383;SDS011;14851;51.166;4.760;2022-12-18T05:36:26;35.85;;;16.55;;
27383;SDS011;14851;51.166;4.760;2022-12-18T05:38:54;34.08;;;16.30;;
27383;SDS011;14851;51.166;4.760;2022-12-18T05:41:20;32.90;;;16.50;;
27383;SDS011;14851;51.166;4.760;2022-12-18T05:43:47;31.75;;;16.50;;
27383;SDS011;14851;51.166;4.760;2022-12-18T05:46:14;35.15;;;16.15;;
27383;SDS011;14851;51.166;4.760;2022-12-18T05:48:42;35.07;;;16.70;;
27383;SDS011;14851;51.166;4.760;2022-12-18T05:51:09;31.60;;;16.15;;
27383;SDS011;14851;51.166;4.760;2022-12-18T05:53:37;34.78;;;17.27;;
27383;SDS011;14851;51.166;4.760;2022-12-18T05:56:04;34.33;;;17.20;;
27383;SDS011;14851;51.166;4.760;2022-12-18T05:58:32;32.10;;;16.73;;
27383;SDS011;14851;51.166;4.760;2022-12-18T06:01:05;35.67;;;15.45;;
27383;SDS011;14851;51.166;4.760;2022-12-18T06:03:36;32.00;;;15.48;;
27383;SDS011;14851;51.166;4.760;2022-12-18T06:06:02;33.65;;;17.25;;
27383;SDS011;14851;51.166;4.760;2022-12-18T06:08:28;35.75;;;17.85;;
27383;SDS011;14851;51.166;4.760;2022-12-18T06:10:54;33.72;;;16.60;;
27383;SDS011;14851;51.166;4.760;2022-12-18T06:13:20;36.75;;;16.17;;
27383;SDS011;14851;51.166;4.760;2022-12-18T06:15:47;29.17;;;15.25;;
27383;SDS011;14851;51.166;4.760;2022-12-18T06:18:14;36.72;;;17.15;;
27383;SDS011;14851;51.166;4.760;2022-12-18T06:20:40;28.55;;;15.00;;
27383;SDS011;14851;51.166;4.760;2022-12-18T06:23:07;33.55;;;16.05;;
27383;SDS011;14851;51.166;4.760;2022-12-18T06:25:37;33.15;;;16.65;;
27383;SDS011;14851;51.166;4.760;2022-12-18T06:28:04;31.42;;;15.68;;
27383;SDS011;14851;51.166;4.760;2022-12-18T06:30:30;30.08;;;16.38;;
27383;SDS011;14851;51.166;4.760;2022-12-18T06:32:59;33.72;;;16.27;;
27383;SDS011;14851;51.166;4.760;2022-12-18T06:35:25;33.60;;;16.03;;
27383;SDS011;14851;51.166;4.760;2022-12-18T06:37:52;37.27;;;15.87;;
27383;SDS011;14851;51.166;4.760;2022-12-18T06:40:19;29.57;;;15.00;;
27383;SDS011;14851;51.166;4.760;2022-12-18T06:42:46;32.97;;;16.35;;
27383;SDS011;14851;51.166;4.760;2022-12-18T06:45:14;31.08;;;15.25;;
27383;SDS011;14851;51.166;4.760;2022-12-18T06:47:41;32.15;;;15.32;;
27383;SDS011;14851;51.166;4.760;2022-12-18T06:50:07;33.00;;;14.65;;
27383;SDS011;14851;51.166;4.760;2022-12-18T06:52:34;27.43;;;15.17;;
27383;SDS011;14851;51.166;4.760;2022-12-18T06:55:01;31.30;;;14.20;;
27383;SDS011;14851;51.166;4.760;2022-12-18T06:57:28;27.58;;;14.35;;
27383;SDS011;14851;51.166;4.760;2022-12-18T06:59:55;28.20;;;13.87;;
27383;SDS011;14851;51.166;4.760;2022-12-18T07:02:21;27.27;;;13.95;;
27383;SDS011;14851;51.166;4.760;2022-12-18T07:04:48;25.17;;;13.77;;
27383;SDS011;14851;51.166;4.760;2022-12-18T07:07:18;30.55;;;14.93;;
27383;SDS011;14851;51.166;4.760;2022-12-18T07:09:45;28.08;;;13.98;;
27383;SDS011;14851;51.166;4.760;2022-12-18T07:12:11;27.08;;;12.60;;
27383;SDS011;14851;51.166;4.760;2022-12-18T07:14:37;26.73;;;13.45;;
27383;SDS011;14851;51.166;4.760;2022-12-18T07:17:04;26.42;;;13.23;;
27383;SDS011;14851;51.166;4.760;2022-12-18T07:19:30;29.00;;;14.02;;
27383;SDS011;14851;51.166;4.760;2022-12-18T07:21:57;25.52;;;13.65;;
27383;SDS011;14851;51.166;4.760;2022-12-18T07:24:23;25.52;;;13.70;;
27383;SDS011;14851;51.166;4.760;2022-12-18T07:26:50;24.52;;;12.98;;
27383;SDS011;14851;51.166;4.760;2022-12-18T07:29:16;29.20;;;13.50;;
27383;SDS011;14851;51.166;4.760;2022-12-18T07:31:42;24.60;;;12.73;;
27383;SDS011;14851;51.166;4.760;2022-12-18T07:34:12;24.02;;;13.05;;
27383;SDS011;14851;51.166;4.760;2022-12-18T07:36:39;30.15;;;14.50;;
27383;SDS011;14851;51.166;4.760;2022-12-18T07:39:05;20.10;;;12.00;;
27383;SDS011;14851;51.166;4.760;2022-12-18T07:41:31;26.23;;;14.02;;
27383;SDS011;14851;51.166;4.760;2022-12-18T07:44:08;21.42;;;12.98;;
27383;SDS011;14851;51.166;4.760;2022-12-18T07:46:36;22.98;;;12.43;;
27383;SDS011;14851;51.166;4.760;2022-12-18T07:49:03;27.52;;;12.20;;
27383;SDS011;14851;51.166;4.760;2022-12-18T07:51:30;26.30;;;13.48;;
27383;SDS011;14851;51.166;4.760;2022-12-18T07:53:57;28.13;;;15.52;;
27383;SDS011;14851;51.166;4.760;2022-12-18T07:56:24;19.10;;;10.73;;
27383;SDS011;14851;51.166;4.760;2022-12-18T07:58:55;22.43;;;11.80;;
27383;SDS011;14851;51.166;4.760;2022-12-18T08:01:22;15.23;;;8.13;;
27383;SDS011;14851;51.166;4.760;2022-12-18T08:03:48;26.27;;;12.00;;
27383;SDS011;14851;51.166;4.760;2022-12-18T08:06:15;20.70;;;10.35;;
27383;SDS011;14851;51.166;4.760;2022-12-18T08:08:45;25.88;;;12.68;;
27383;SDS011;14851;51.166;4.760;2022-12-18T08:11:12;26.45;;;13.20;;
27383;SDS011;14851;51.166;4.760;2022-12-18T08:13:39;25.30;;;13.13;;
27383;SDS011;14851;51.166;4.760;2022-12-18T08:16:06;27.67;;;13.77;;
27383;SDS011;14851;51.166;4.760;2022-12-18T08:18:35;28.13;;;14.32;;
27383;SDS011;14851;51.166;4.760;2022-12-18T08:21:11;30.02;;;16.33;;
27383;SDS011;14851;51.166;4.760;2022-12-18T08:23:40;23.98;;;13.05;;
27383;SDS011;14851;51.166;4.760;2022-12-18T08:26:07;21.50;;;12.10;;
27383;SDS011;14851;51.166;4.760;2022-12-18T08:28:34;25.60;;;13.48;;
27383;SDS011;14851;51.166;4.760;2022-12-18T08:31:01;25.90;;;12.27;;
27383;SDS011;14851;51.166;4.760;2022-12-18T08:33:30;26.38;;;13.32;;
27383;SDS011;14851;51.166;4.760;2022-12-18T08:36:03;25.58;;;13.15;;
27383;SDS011;14851;51.166;4.760;2022-12-18T08:38:30;16.70;;;9.27;;
27383;SDS011;14851;51.166;4.760;2022-12-18T08:40:58;26.33;;;13.05;;
27383;SDS011;14851;51.166;4.760;2022-12-18T08:43:30;19.33;;;10.90;;
27383;SDS011;14851;51.166;4.760;2022-12-18T08:46:14;19.45;;;10.13;;
27383;SDS011;14851;51.166;4.760;2022-12-18T08:48:40;21.27;;;10.48;;
27383;SDS011;14851;51.166;4.760;2022-12-18T08:51:07;17.88;;;10.25;;
27383;SDS011;14851;51.166;4.760;2022-12-18T08:53:35;22.77;;;10.03;;
27383;SDS011;14851;51.166;4.760;2022-12-18T09:08:26;19.50;;;11.68;;
27383;SDS011;14851;51.166;4.760;2022-12-18T09:10:56;17.83;;;10.50;;
27383;SDS011;14851;51.166;4.760;2022-12-18T09:13:23;22.05;;;11.20;;
27383;SDS011;14851;51.166;4.760;2022-12-18T09:15:54;26.98;;;12.68;;
27383;SDS011;14851;51.166;4.760;2022-12-18T09:18:21;20.65;;;11.80;;
27383;SDS011;14851;51.166;4.760;2022-12-18T09:20:49;20.48;;;11.55;;
27383;SDS011;14851;51.166;4.760;2022-12-18T09:23:23;20.75;;;11.18;;
27383;SDS011;14851;51.166;4.760;2022-12-18T09:25:49;18.60;;;11.05;;
27383;SDS011;14851;51.166;4.760;2022-12-18T09:28:18;26.42;;;12.55;;
27383;SDS011;14851;51.166;4.760;2022-12-18T09:30:45;16.23;;;10.13;;
27383;SDS011;14851;51.166;4.760;2022-12-18T09:33:14;17.77;;;10.15;;
27383;SDS011;14851;51.166;4.760;2022-12-18T09:35:42;15.90;;;9.93;;
27383;SDS011;14851;51.166;4.760;2022-12-18T09:38:13;16.23;;;9.50;;
27383;SDS011;14851;51.166;4.760;2022-12-18T09:40:42;16.27;;;9.23;;
27383;SDS011;14851;51.166;4.760;2022-12-18T09:43:13;21.60;;;11.07;;
27383;SDS011;14851;51.166;4.760;2022-12-18T09:45:46;18.95;;;10.10;;
27383;SDS011;14851;51.166;4.760;2022-12-18T09:48:28;19.50;;;9.48;;
27383;SDS011;14851;51.166;4.760;2022-12-18T09:51:03;17.50;;;10.30;;
27383;SDS011;14851;51.166;4.760;2022-12-18T09:53:47;14.95;;;9.18;;
27383;SDS011;14851;51.166;4.760;2022-12-18T09:56:21;18.42;;;10.15;;
27383;SDS011;14851;51.166;4.760;2022-12-18T09:58:55;18.05;;;8.85;;
27383;SDS011;14851;51.166;4.760;2022-12-18T10:01:28;17.05;;;9.60;;
27383;SDS011;14851;51.166;4.760;2022-12-18T10:03:56;15.30;;;9.38;;
27383;SDS011;14851;51.166;4.760;2022-12-18T10:14:36;17.98;;;9.25;;
27383;SDS011;14851;51.166;4.760;2022-12-18T10:20:12;15.75;;;7.32;;
27383;SDS011;14851;51.166;4.760;2022-12-18T10:22:45;19.83;;;10.05;;
27383;SDS011;14851;51.166;4.760;2022-12-18T10:25:20;16.58;;;8.25;;
27383;SDS011;14851;51.166;4.760;2022-12-18T10:27:55;18.67;;;8.40;;
27383;SDS011;14851;51.166;4.760;2022-12-18T10:30:24;14.82;;;8.18;;
27383;SDS011;14851;51.166;4.760;2022-12-18T10:32:52;25.23;;;12.18;;
27383;SDS011;14851;51.166;4.760;2022-12-18T10:35:22;19.27;;;11.30;;
27383;SDS011;14851;51.166;4.760;2022-12-18T10:40:52;17.63;;;10.50;;
27383;SDS011;14851;51.166;4.760;2022-12-18T10:43:32;16.98;;;10.57;;
27383;SDS011;14851;51.166;4.760;2022-12-18T10:51:19;21.95;;;12.90;;
27383;SDS011;14851;51.166;4.760;2022-12-18T10:53:51;22.38;;;12.25;;
27383;SDS011;14851;51.166;4.760;2022-12-18T10:56:24;17.90;;;9.48;;
27383;SDS011;14851;51.166;4.760;2022-12-18T10:58:59;18.30;;;10.27;;
27383;SDS011;14851;51.166;4.760;2022-12-18T11:01:26;13.70;;;9.43;;
27383;SDS011;14851;51.166;4.760;2022-12-18T11:06:21;18.00;;;10.98;;
27383;SDS011;14851;51.166;4.760;2022-12-18T11:09:05;16.38;;;8.45;;
27383;SDS011;14851;51.166;4.760;2022-12-18T11:11:51;18.33;;;10.63;;
27383;SDS011;14851;51.166;4.760;2022-12-18T11:14:24;17.95;;;10.25;;
27383;SDS011;14851;51.166;4.760;2022-12-18T11:17:18;21.40;;;12.80;;
27383;SDS011;14851;51.166;4.760;2022-12-18T11:19:57;62.08;;;15.20;;
27383;SDS011;14851;51.166;4.760;2022-12-18T11:22:30;21.00;;;12.35;;
27383;SDS011;14851;51.166;4.760;2022-12-18T11:25:02;18.30;;;11.55;;
27383;SDS011;14851;51.166;4.760;2022-12-18T11:27:53;19.67;;;11.85;;
27383;SDS011;14851;51.166;4.760;2022-12-18T11:30:24;24.85;;;14.40;;
27383;SDS011;14851;51.166;4.760;2022-12-18T11:33:03;19.02;;;10.98;;
27383;SDS011;14851;51.166;4.760;2022-12-18T11:38:21;24.88;;;14.95;;
27383;SDS011;14851;51.166;4.760;2022-12-18T11:40:58;20.00;;;9.48;;
27383;SDS011;14851;51.166;4.760;2022-12-18T11:46:58;22.75;;;13.85;;
27383;SDS011;14851;51.166;4.760;2022-12-18T11:49:08;19.55;;;11.50;;
27383;SDS011;14851;51.166;4.760;2022-12-18T11:54:51;23.33;;;14.10;;
27383;SDS011;14851;51.166;4.760;2022-12-18T12:00:12;25.13;;;12.77;;
27383;SDS011;14851;51.166;4.760;2022-12-18T12:05:36;22.88;;;13.07;;
27383;SDS011;14851;51.166;4.760;2022-12-18T12:16:14;24.17;;;14.95;;
27383;SDS011;14851;51.166;4.760;2022-12-18T12:21:57;22.92;;;14.52;;
27383;SDS011;14851;51.166;4.760;2022-12-18T12:30:00;27.08;;;15.93;;
27383;SDS011;14851;51.166;4.760;2022-12-18T12:38:06;21.80;;;12.25;;
27383;SDS011;14851;51.166;4.760;2022-12-18T12:40:41;24.73;;;13.45;;
27383;SDS011;14851;51.166;4.760;2022-12-18T12:48:36;22.63;;;13.55;;
27383;SDS011;14851;51.166;4.760;2022-12-18T12:51:34;18.77;;;11.88;;
27383;SDS011;14851;51.166;4.760;2022-12-18T12:54:04;27.45;;;15.65;;
27383;SDS011;14851;51.166;4.760;2022-12-18T12:56:39;26.67;;;15.15;;
27383;SDS011;14851;51.166;4.760;2022-12-18T13:01:58;24.33;;;15.15;;
27383;SDS011;14851;51.166;4.760;2022-12-18T13:04:56;28.52;;;16.63;;
27383;SDS011;14851;51.166;4.760;2022-12-18T13:07:39;26.83;;;16.05;;
27383;SDS011;14851;51.166;4.760;2022-12-18T13:13:02;26.05;;;15.65;;
27383;SDS011;14851;51.166;4.760;2022-12-18T13:20:37;22.75;;;13.25;;
27383;SDS011;14851;51.166;4.760;2022-12-18T13:25:51;27.65;;;15.45;;
27383;SDS011;14851;51.166;4.760;2022-12-18T13:34:25;30.75;;;17.27;;
27383;SDS011;14851;51.166;4.760;2022-12-18T13:36:57;31.83;;;18.10;;
27383;SDS011;14851;51.166;4.760;2022-12-18T13:39:59;62.15;;;19.75;;
27383;SDS011;14851;51.166;4.760;2022-12-18T13:48:19;26.75;;;16.77;;
27383;SDS011;14851;51.166;4.760;2022-12-18T13:50:55;29.67;;;17.73;;
27383;SDS011;14851;51.166;4.760;2022-12-18T13:53:26;33.03;;;17.33;;
27383;SDS011;14851;51.166;4.760;2022-12-18T13:55:54;21.02;;;12.35;;
27383;SDS011;14851;51.166;4.760;2022-12-18T13:58:21;28.10;;;16.13;;
27383;SDS011;14851;51.166;4.760;2022-12-18T14:00:47;29.00;;;17.48;;
27383;SDS011;14851;51.166;4.760;2022-12-18T14:03:23;25.60;;;15.38;;
27383;SDS011;14851;51.166;4.760;2022-12-18T14:05:55;25.10;;;14.02;;
27383;SDS011;14851;51.166;4.760;2022-12-18T14:08:32;33.65;;;20.00;;
27383;SDS011;14851;51.166;4.760;2022-12-18T14:11:04;33.50;;;18.50;;
27383;SDS011;14851;51.166;4.760;2022-12-18T14:13:33;29.77;;;16.08;;
27383;SDS011;14851;51.166;4.760;2022-12-18T14:16:03;27.98;;;16.52;;
27383;SDS011;14851;51.166;4.760;2022-12-18T14:21:24;24.88;;;14.55;;
27383;SDS011;14851;51.166;4.760;2022-12-18T14:26:47;24.55;;;14.85;;
27383;SDS011;14851;51.166;4.760;2022-12-18T14:29:27;25.63;;;14.70;;
27383;SDS011;14851;51.166;4.760;2022-12-18T14:34:51;30.95;;;15.70;;
27383;SDS011;14851;51.166;4.760;2022-12-18T14:37:25;26.77;;;15.98;;
27383;SDS011;14851;51.166;4.760;2022-12-18T14:39:56;29.98;;;19.75;;
27383;SDS011;14851;51.166;4.760;2022-12-18T14:42:25;32.92;;;17.83;;
27383;SDS011;14851;51.166;4.760;2022-12-18T14:48:48;22.92;;;13.95;;
27383;SDS011;14851;51.166;4.760;2022-12-18T14:51:04;22.83;;;13.55;;
27383;SDS011;14851;51.166;4.760;2022-12-18T14:53:32;24.75;;;15.13;;
27383;SDS011;14851;51.166;4.760;2022-12-18T14:56:14;24.27;;;14.90;;
27383;SDS011;14851;51.166;4.760;2022-12-18T14:58:49;23.13;;;13.70;;
27383;SDS011;14851;51.166;4.760;2022-12-18T15:01:33;26.95;;;14.60;;
27383;SDS011;14851;51.166;4.760;2022-12-18T15:04:04;31.45;;;17.17;;
27383;SDS011;14851;51.166;4.760;2022-12-18T15:06:47;29.17;;;16.42;;
27383;SDS011;14851;51.166;4.760;2022-12-18T15:09:22;28.73;;;17.00;;
27383;SDS011;14851;51.166;4.760;2022-12-18T15:11:56;32.03;;;16.25;;
27383;SDS011;14851;51.166;4.760;2022-12-18T15:19:47;24.83;;;13.20;;
27383;SDS011;14851;51.166;4.760;2022-12-18T15:24:53;24.73;;;15.95;;
27383;SDS011;14851;51.166;4.760;2022-12-18T15:27:28;24.88;;;13.93;;
27383;SDS011;14851;51.166;4.760;2022-12-18T15:30:28;26.70;;;15.45;;
27383;SDS011;14851;51.166;4.760;2022-12-18T15:32:48;28.00;;;14.50;;
27383;SDS011;14851;51.166;4.760;2022-12-18T15:35:20;30.48;;;17.85;;
27383;SDS011;14851;51.166;4.760;2022-12-18T15:37:49;29.77;;;17.02;;
27383;SDS011;14851;51.166;4.760;2022-12-18T15:40:20;27.77;;;17.63;;
27383;SDS011;14851;51.166;4.760;2022-12-18T15:42:48;34.88;;;18.10;;
27383;SDS011;14851;51.166;4.760;2022-12-18T15:45:35;26.52;;;15.77;;
27383;SDS011;14851;51.166;4.760;2022-12-18T15:48:07;28.48;;;17.05;;
27383;SDS011;14851;51.166;4.760;2022-12-18T15:50:47;33.00;;;18.42;;
27383;SDS011;14851;51.166;4.760;2022-12-18T15:53:15;27.92;;;16.75;;
27383;SDS011;14851;51.166;4.760;2022-12-18T15:55:42;29.85;;;17.42;;
27383;SDS011;14851;51.166;4.760;2022-12-18T15:58:27;30.00;;;15.18;;
27383;SDS011;14851;51.166;4.760;2022-12-18T16:00:53;29.13;;;16.40;;
27383;SDS011;14851;51.166;4.760;2022-12-18T16:03:22;29.75;;;18.00;;
27383;SDS011;14851;51.166;4.760;2022-12-18T16:05:50;30.95;;;17.13;;
27383;SDS011;14851;51.166;4.760;2022-12-18T16:08:17;26.95;;;16.08;;
27383;SDS011;14851;51.166;4.760;2022-12-18T16:10:43;32.13;;;18.02;;
27383;SDS011;14851;51.166;4.760;2022-12-18T16:13:12;34.88;;;18.42;;
27383;SDS011;14851;51.166;4.760;2022-12-18T16:15:44;37.00;;;19.92;;
27383;SDS011;14851;51.166;4.760;2022-12-18T16:18:10;26.48;;;15.38;;
27383;SDS011;14851;51.166;4.760;2022-12-18T16:20:39;34.33;;;18.25;;
27383;SDS011;14851;51.166;4.760;2022-12-18T16:23:06;26.23;;;15.60;;
27383;SDS011;14851;51.166;4.760;2022-12-18T16:25:33;28.85;;;16.27;;
27383;SDS011;14851;51.166;4.760;2022-12-18T16:28:00;26.48;;;17.08;;
27383;SDS011;14851;51.166;4.760;2022-12-18T16:30:27;29.63;;;17.52;;
27383;SDS011;14851;51.166;4.760;2022-12-18T16:32:56;29.15;;;17.00;;
27383;SDS011;14851;51.166;4.760;2022-12-18T16:35:23;28.20;;;16.90;;
27383;SDS011;14851;51.166;4.760;2022-12-18T16:37:52;34.38;;;19.92;;
27383;SDS011;14851;51.166;4.760;2022-12-18T16:40:19;31.33;;;18.85;;
27383;SDS011;14851;51.166;4.760;2022-12-18T16:42:47;34.58;;;19.08;;
27383;SDS011;14851;51.166;4.760;2022-12-18T16:45:14;38.30;;;20.05;;
27383;SDS011;14851;51.166;4.760;2022-12-18T16:47:41;38.58;;;21.63;;
27383;SDS011;14851;51.166;4.760;2022-12-18T16:50:09;41.45;;;23.67;;
27383;SDS011;14851;51.166;4.760;2022-12-18T16:52:35;35.35;;;19.42;;
27383;SDS011;14851;51.166;4.760;2022-12-18T16:55:05;28.73;;;15.82;;
27383;SDS011;14851;51.166;4.760;2022-12-18T16:57:32;30.00;;;16.27;;
27383;SDS011;14851;51.166;4.760;2022-12-18T16:59:59;28.60;;;16.10;;
27383;SDS011;14851;51.166;4.760;2022-12-18T17:02:25;30.83;;;16.20;;
27383;SDS011;14851;51.166;4.760;2022-12-18T17:04:55;33.40;;;18.23;;
27383;SDS011;14851;51.166;4.760;2022-12-18T17:07:23;26.10;;;15.23;;
27383;SDS011;14851;51.166;4.760;2022-12-18T17:09:49;29.17;;;16.40;;
27383;SDS011;14851;51.166;4.760;2022-12-18T17:12:19;34.78;;;19.35;;
27383;SDS011;14851;51.166;4.760;2022-12-18T17:14:45;33.10;;;17.83;;
27383;SDS011;14851;51.166;4.760;2022-12-18T17:17:11;32.03;;;19.10;;
27383;SDS011;14851;51.166;4.760;2022-12-18T17:19:37;31.00;;;16.35;;
27383;SDS011;14851;51.166;4.760;2022-12-18T17:22:04;33.55;;;18.20;;